Time;durP1;ratioP1;P1;durP2;ratioP2;P2;SDS_P1;SDS_P2;PMS_P1;PMS_P2;Temp;Humidity;BMP_temperature;BMP_pressure;BME280_temperature;BME280_humidity;BME280_pressure;Samples;Min_cycle;Max_cycle;Signal;HPM_P1;HPM_P2
2023/08/17 00:00:14;;;;;;;47.67;6.63;;;;;;;26.40;63.18;99685.91;7307878;19;129878;-39
2023/08/17 00:02:41;;;;;;;47.73;6.80;;;;;;;26.42;63.21;99686.56;7310502;19;129595;-36
2023/08/17 00:05:06;;;;;;;;;;;;;;;26.51;63.21;99688.19;7311007;19;129241;-31
2023/08/17 00:07:32;;;;;;;47.42;6.68;;;;;;;26.44;63.04;99687.22;7308183;19;130773;-38
2023/08/17 00:09:57;;;;;;;51.23;7.00;;;;;;;26.40;63.45;99686.72;7310524;19;129054;-40
2023/08/17 00:12:23;;;;;;;45.07;6.80;;;;;;;26.42;63.81;99683.94;7311068;19;130350;-33
2023/08/17 00:14:48;;;;;;;47.77;6.97;;;;;;;26.40;63.63;99681.47;7314132;19;129073;-29
2023/08/17 00:17:13;;;;;;;27.13;5.47;;;;;;;26.41;63.33;99683.09;7316383;19;129609;-37
2023/08/17 00:19:39;;;;;;;30.83;5.60;;;;;;;26.42;63.61;99670.75;7317226;19;129947;-37
2023/08/17 00:22:04;;;;;;;24.13;5.30;;;;;;;26.41;63.47;99674.38;7317647;19;129296;-41
2023/08/17 00:24:29;;;;;;;38.63;6.30;;;;;;;26.41;63.77;99675.19;7316904;19;129910;-44
2023/08/17 00:26:55;;;;;;;75.43;8.43;;;;;;;26.43;63.78;99672.38;7313818;19;131391;-34
2023/08/17 00:29:20;;;;;;;31.47;5.47;;;;;;;26.42;63.04;99671.56;7315571;19;130314;-35
2023/08/17 00:31:45;;;;;;;40.77;6.50;;;;;;;26.42;62.92;99661.03;7316929;19;129411;-36
2023/08/17 00:34:11;;;;;;;26.57;5.33;;;;;;;26.42;62.79;99658.38;7315421;19;129343;-33
2023/08/17 00:36:36;;;;;;;42.60;6.30;;;;;;;26.43;63.16;99652.13;7314304;19;129595;-35
2023/08/17 00:39:02;;;;;;;55.40;7.17;;;;;;;26.41;63.63;99646.19;7316192;19;129488;-35
2023/08/17 00:41:28;;;;;;;37.73;6.03;;;;;;;26.35;63.04;99628.41;7316421;19;129255;-38
2023/08/17 00:43:54;;;;;;;26.50;5.35;;;;;;;26.42;63.48;99634.66;7317952;19;130344;-36
2023/08/17 00:46:22;;;;;;;39.40;5.73;;;;;;;26.44;63.26;99632.69;7314846;19;131170;-40
2023/08/17 00:48:48;;;;;;;29.52;5.38;;;;;;;26.39;63.18;99627.09;7313959;19;129265;-38
2023/08/17 00:51:13;;;;;;;34.70;5.60;;;;;;;26.40;62.86;99633.16;7315975;19;129501;-37
2023/08/17 00:53:39;;;;;;;31.67;5.37;;;;;;;26.41;63.45;99640.91;7315979;19;129451;-36
2023/08/17 00:56:05;;;;;;;67.67;7.70;;;;;;;26.39;63.09;99637.66;7314330;19;130267;-37
2023/08/17 00:58:31;;;;;;;35.30;6.07;;;;;;;26.41;62.97;99635.63;7313987;19;128820;-36
2023/08/17 01:00:56;;;;;;;23.83;5.00;;;;;;;26.40;63.45;99623.47;7313554;19;129133;-37
2023/08/17 01:03:22;;;;;;;36.77;6.07;;;;;;;26.44;62.97;99629.22;7315565;19;130095;-33
2023/08/17 01:05:48;;;;;;;74.80;8.90;;;;;;;26.44;62.69;99637.97;7315084;19;129690;-39
2023/08/17 01:08:13;;;;;;;65.53;7.80;;;;;;;26.40;62.66;99639.28;7313550;19;129106;-37
2023/08/17 01:10:55;;;;;;;38.53;6.17;;;;;;;26.43;63.59;99636.28;7315122;19;130083;-34
2023/08/17 01:13:27;;;;;;;40.50;6.28;;;;;;;26.42;63.48;99645.22;7315357;19;131444;-38
2023/08/17 01:15:57;;;;;;;99.03;10.95;;;;;;;26.39;63.28;99642.91;7313517;19;129253;-38
2023/08/17 01:18:40;;;;;;;57.28;7.00;;;;;;;26.39;63.73;99652.63;7312365;19;129618;-40
2023/08/17 01:21:08;;;;;;;50.60;6.65;;;;;;;26.36;63.09;99648.50;7312078;19;129152;-43
2023/08/17 01:23:34;;;;;;;19.65;5.05;;;;;;;26.37;62.92;99651.97;7315272;19;129047;-34
2023/08/17 01:25:59;;;;;;;25.90;5.13;;;;;;;26.39;63.22;99660.53;7312028;19;131254;-30
2023/08/17 01:28:25;;;;;;;72.07;7.90;;;;;;;26.38;63.10;99659.72;7312186;19;129726;-38
2023/08/17 01:30:58;;;;;;;40.73;6.77;;;;;;;26.37;63.46;99659.88;7316382;19;129087;-37
2023/08/17 01:33:55;;;;;;;45.05;6.78;;;;;;;26.41;63.47;99659.38;7314227;19;130937;-36
2023/08/17 01:36:31;;;;;;;56.17;7.82;;;;;;;26.41;63.53;99659.38;7310708;19;129389;-39
2023/08/17 01:39:00;;;;;;;34.88;5.78;;;;;;;26.39;63.07;99664.00;7315524;19;129407;-28
2023/08/17 01:41:26;;;;;;;45.17;6.60;;;;;;;26.40;63.26;99667.44;7313412;19;129956;-31
2023/08/17 01:43:53;;;;;;;28.92;5.63;;;;;;;26.40;63.24;99670.91;7314014;19;130758;-32
2023/08/17 01:46:19;;;;;;;64.25;7.78;;;;;;;26.37;63.05;99679.16;7310936;19;130317;-38
2023/08/17 01:48:45;;;;;;;30.07;5.60;;;;;;;26.37;63.24;99676.53;7312892;19;129571;-39
2023/08/17 01:51:16;;;;;;;35.00;5.55;;;;;;;26.35;62.73;99667.97;7313387;19;129522;-40
2023/08/17 01:53:41;;;;;;;38.80;5.85;;;;;;;26.28;62.98;99656.44;7313325;19;129579;-37
2023/08/17 01:56:07;;;;;;;39.40;6.63;;;;;;;26.38;62.89;99672.88;7312174;19;129797;-37
2023/08/17 01:58:32;;;;;;;32.77;5.90;;;;;;;26.37;62.77;99668.63;7308538;19;128888;-34
2023/08/17 02:00:58;;;;;;;29.33;5.37;;;;;;;26.36;63.13;99669.59;7311913;19;128895;-36
2023/08/17 02:03:23;;;;;;;81.80;8.37;;;;;;;26.36;63.29;99674.88;7311748;19;130287;-41
2023/08/17 02:05:49;;;;;;;93.37;10.03;;;;;;;26.36;62.72;99669.59;7312850;19;130289;-37
2023/08/17 02:08:14;;;;;;;32.63;5.93;;;;;;;26.38;63.52;99672.88;7308863;19;129351;-39
2023/08/17 02:10:40;;;;;;;26.57;5.43;;;;;;;26.37;63.46;99660.72;7313639;19;128755;-39
2023/08/17 02:13:05;;;;;;;57.13;7.10;;;;;;;26.40;62.95;99660.38;7314472;19;129590;-33
2023/08/17 02:15:30;;;;;;;63.03;7.40;;;;;;;26.38;63.05;99664.16;7312364;19;129240;-40
2023/08/17 02:18:01;;;;;;;15.90;4.60;;;;;;;26.36;63.86;99664.31;7310970;19;129460;-35
2023/08/17 02:20:26;;;;;;;46.70;6.72;;;;;;;26.37;62.97;99655.44;7311100;19;129225;-35
2023/08/17 02:22:52;;;;;;;32.53;5.43;;;;;;;26.38;62.80;99662.34;7312981;19;129090;-40
2023/08/17 02:25:17;;;;;;;17.87;4.57;;;;;;;26.38;63.17;99661.50;7312933;19;130346;-38
2023/08/17 02:27:42;;;;;;;45.43;5.83;;;;;;;26.39;62.87;99658.72;7308716;19;129536;-37
2023/08/17 02:30:08;;;;;;;32.40;5.50;;;;;;;26.39;63.01;99657.91;7311768;19;129162;-37
2023/08/17 02:32:33;;;;;;;56.13;6.90;;;;;;;26.39;63.07;99657.91;7311860;19;129239;-31
2023/08/17 02:34:59;;;;;;;29.33;5.17;;;;;;;26.40;62.89;99665.63;7313466;19;130354;-36
2023/08/17 02:37:24;;;;;;;20.33;4.90;;;;;;;26.40;63.15;99670.91;7307280;19;128870;-39
2023/08/17 02:39:49;;;;;;;28.00;5.33;;;;;;;26.30;62.96;99654.47;7310971;19;129727;-27
2023/08/17 02:42:15;;;;;;;53.93;6.30;;;;;;;26.40;62.84;99673.53;7313200;19;129293;-35
2023/08/17 02:44:40;;;;;;;74.90;8.37;;;;;;;26.38;62.67;99674.69;7311072;19;129170;-39
2023/08/17 02:47:05;;;;;;;27.93;5.57;;;;;;;26.37;62.63;99673.88;7310076;19;128868;-36
2023/08/17 02:49:31;;;;;;;69.43;6.90;;;;;;;26.36;62.96;99674.88;7312054;19;129083;-42
2023/08/17 02:51:56;;;;;;;32.60;5.30;;;;;;;26.38;62.84;99675.53;7312588;19;129423;-35
2023/08/17 02:54:22;;;;;;;27.90;4.90;;;;;;;26.37;62.84;99676.53;7312551;19;129289;-34
2023/08/17 02:56:47;;;;;;;42.57;6.07;;;;;;;26.35;62.78;99675.88;7308002;19;129081;-34
2023/08/17 02:59:12;;;;;;;29.00;4.97;;;;;;;26.35;62.94;99673.22;7313740;19;130023;-34
2023/08/17 03:01:38;;;;;;;60.37;7.10;;;;;;;26.36;62.46;99668.78;7311980;19;130481;-31
2023/08/17 03:04:03;;;;;;;26.53;4.90;;;;;;;26.36;62.31;99664.31;7311918;19;130889;-33
2023/08/17 03:06:29;;;;;;;37.83;5.70;;;;;;;26.30;62.71;99651.81;7310634;19;129871;-43
2023/08/17 03:08:54;;;;;;;42.50;5.63;;;;;;;26.37;62.49;99659.88;7309586;19;128840;-37
2023/08/17 03:11:21;;;;;;;23.70;4.73;;;;;;;26.37;62.89;99655.44;7311716;19;129554;-37
2023/08/17 03:13:47;;;;;;;55.03;6.95;;;;;;;26.26;62.90;99642.59;7310962;19;130210;-33
2023/08/17 03:16:13;;;;;;;16.50;4.38;;;;;;;26.34;62.93;99657.59;7310408;19;129392;-38
2023/08/17 03:18:38;;;;;;;56.27;6.53;;;;;;;26.35;62.22;99662.69;7308744;19;129452;-34
2023/08/17 03:21:04;;;;;;;10.03;4.23;;;;;;;26.25;62.79;99648.03;7309577;19;129137;-41
2023/08/17 03:23:29;;;;;;;32.20;5.10;;;;;;;26.37;62.70;99680.97;7312102;19;130285;-35
2023/08/17 03:25:54;;;;;;;52.07;6.57;;;;;;;26.36;62.85;99685.41;7309725;19;130999;-38
2023/08/17 03:28:20;;;;;;;45.60;5.90;;;;;;;26.35;62.32;99681.13;7310192;19;129140;-37
2023/08/17 03:30:45;;;;;;;42.33;6.30;;;;;;;26.37;62.34;99679.16;7310166;19;130791;-35
2023/08/17 03:33:10;;;;;;;30.43;5.10;;;;;;;26.37;62.50;99675.69;7311263;19;129212;-35
2023/08/17 03:35:36;;;;;;;58.23;6.73;;;;;;;26.35;61.87;99675.03;7309998;19;129305;-36
2023/08/17 03:38:01;;;;;;;78.60;7.63;;;;;;;26.35;62.16;99675.03;7308551;19;130328;-42
2023/08/17 03:40:27;;;;;;;28.20;5.20;;;;;;;26.34;62.24;99676.88;7309890;19;129486;-40
2023/08/17 03:42:52;;;;;;;41.00;5.60;;;;;;;26.36;62.56;99679.34;7310043;19;129649;-34
2023/08/17 03:45:18;;;;;;;48.53;6.20;;;;;;;26.34;62.17;99671.59;7310416;19;128798;-35
2023/08/17 03:47:43;;;;;;;21.53;4.47;;;;;;;26.33;62.09;99669.94;7307722;19;129224;-38
2023/08/17 03:50:09;;;;;;;76.17;7.87;;;;;;;26.33;62.07;99669.13;7308864;19;129277;-40
2023/08/17 03:52:35;;;;;;;27.90;5.00;;;;;;;26.33;62.41;99663.84;7310421;19;129584;-39
2023/08/17 03:55:01;;;;;;;73.57;7.73;;;;;;;26.27;62.07;99654.81;7308566;19;128891;-42
2023/08/17 03:57:26;;;;;;;29.13;4.60;;;;;;;26.33;61.80;99663.84;7308107;19;129726;-36
2023/08/17 03:59:51;;;;;;;28.77;4.60;;;;;;;26.32;62.23;99663.03;7309811;19;129464;-36
2023/08/17 04:02:19;;;;;;;62.72;7.10;;;;;;;26.29;62.00;99663.38;7304222;19;129057;-38
2023/08/17 04:04:45;;;;;;;37.30;5.47;;;;;;;26.31;62.60;99666.63;7310656;19;129445;-34
2023/08/17 04:07:10;;;;;;;67.10;7.40;;;;;;;26.32;61.70;99657.75;7304862;19;129234;-39
2023/08/17 04:09:35;;;;;;;13.63;4.27;;;;;;;26.31;61.99;99653.44;7307839;19;129155;-42
2023/08/17 04:12:03;;;;;;;27.70;4.87;;;;;;;26.32;61.79;99660.41;7307776;19;129741;-32
2023/08/17 04:14:29;;;;;;;55.13;6.72;;;;;;;26.32;61.70;99670.94;7309205;19;130620;-36
2023/08/17 04:16:55;;;;;;;25.33;4.47;;;;;;;26.33;61.69;99679.69;7309195;19;130280;-37
2023/08/17 04:19:20;;;;;;;30.05;4.32;;;;;;;26.31;62.35;99677.19;7308087;19;130575;-39
2023/08/17 04:21:46;;;;;;;35.10;5.13;;;;;;;26.30;61.50;99665.00;7305423;19;131293;-37
2023/08/17 04:24:11;;;;;;;59.87;6.60;;;;;;;26.30;61.43;99675.53;7308829;19;129273;-36
2023/08/17 04:26:36;;;;;;;63.23;6.90;;;;;;;26.31;61.95;99679.00;7308249;19;128820;-36
2023/08/17 04:29:02;;;;;;;55.73;6.10;;;;;;;26.30;61.92;99680.81;7308197;19;130149;-37
2023/08/17 04:31:27;;;;;;;28.53;4.70;;;;;;;26.31;61.88;99671.09;7306829;19;131017;-35
2023/08/17 04:33:53;;;;;;;48.23;5.67;;;;;;;26.19;62.07;99648.72;7309446;19;129589;-36
2023/08/17 04:36:18;;;;;;;80.80;8.33;;;;;;;26.27;62.06;99670.63;7304411;19;129104;-41
2023/08/17 04:38:43;;;;;;;38.10;5.70;;;;;;;26.26;62.05;99674.22;7300388;19;129221;-31
2023/08/17 04:41:09;;;;;;;62.87;6.60;;;;;;;26.26;62.00;99674.22;7304628;19;130975;-33
2023/08/17 04:43:34;;;;;;;42.20;5.47;;;;;;;26.31;61.56;99687.72;7306639;19;129418;-37
2023/08/17 04:46:00;;;;;;;81.13;7.97;;;;;;;26.32;61.72;99689.38;7304040;19;132136;-34
2023/08/17 04:48:26;;;;;;;31.90;5.00;;;;;;;26.25;61.28;99672.59;7298442;19;130055;-36
2023/08/17 04:50:51;;;;;;;52.67;6.22;;;;;;;26.34;61.46;99690.06;7305977;19;129875;-38
2023/08/17 04:53:17;;;;;;;55.37;6.00;;;;;;;26.35;61.80;99693.50;7303608;19;128959;-39
2023/08/17 04:55:42;;;;;;;108.27;10.80;;;;;;;26.25;61.85;99687.56;7301313;19;129268;-33
2023/08/17 04:58:08;;;;;;;117.23;10.40;;;;;;;26.34;61.72;99703.22;7297121;19;130121;-41
2023/08/17 05:00:33;;;;;;;52.57;5.90;;;;;;;26.34;62.09;99707.66;7305718;19;130705;-42
2023/08/17 05:02:59;;;;;;;77.13;7.80;;;;;;;26.32;61.67;99709.66;7310812;19;129342;-36
2023/08/17 05:05:25;;;;;;;62.37;6.57;;;;;;;26.33;61.89;99713.94;7311974;19;131146;-34
2023/08/17 05:07:52;;;;;;;74.30;7.63;;;;;;;26.21;61.85;99697.66;7308036;19;130029;-29
2023/08/17 05:10:18;;;;;;;101.05;9.85;;;;;;;26.32;61.73;99731.56;7305986;19;130537;-40
2023/08/17 05:12:43;;;;;;;34.43;5.07;;;;;;;26.32;61.55;99731.56;7309190;19;130204;-34
2023/08/17 05:15:09;;;;;;;66.30;6.67;;;;;;;26.33;61.37;99730.56;7308648;19;130325;-33
2023/08/17 05:17:34;;;;;;;58.20;6.43;;;;;;;26.33;61.33;99732.41;7305009;19;131166;-36
2023/08/17 05:20:00;;;;;;;86.73;8.90;;;;;;;26.31;61.31;99729.91;7306879;19;130632;-41
2023/08/17 05:22:25;;;;;;;82.23;8.23;;;;;;;26.32;61.43;99736.84;7307306;19;129920;-40
2023/08/17 05:24:51;;;;;;;38.17;5.37;;;;;;;26.31;62.13;99731.75;7308057;19;129786;-38
2023/08/17 05:27:16;;;;;;;55.23;7.00;;;;;;;26.30;62.11;99725.63;7307465;19;131394;-42
2023/08/17 05:29:42;;;;;;;39.87;5.70;;;;;;;26.21;62.05;99702.94;7309919;19;130331;-41
2023/08/17 05:32:07;;;;;;;38.67;5.67;;;;;;;26.30;62.47;99709.81;7306957;19;129403;-38
2023/08/17 05:34:34;;;;;;;45.73;6.27;;;;;;;26.31;62.23;99718.56;7309055;19;129444;-38
2023/08/17 05:37:04;;;;;;;52.92;6.63;;;;;;;26.27;62.33;99718.06;7303383;19;129970;-39
2023/08/17 05:39:29;;;;;;;89.47;9.05;;;;;;;26.14;62.37;99696.66;7312291;19;129228;-40
2023/08/17 05:41:55;;;;;;;25.40;5.50;;;;;;;26.26;62.77;99720.88;7312579;19;129037;-40
2023/08/17 05:44:20;;;;;;;42.07;6.30;;;;;;;26.27;62.73;99712.78;7314916;19;129572;-36
2023/08/17 05:46:46;;;;;;;42.50;6.13;;;;;;;26.26;62.73;99726.94;7310433;19;129199;-38
2023/08/17 05:49:11;;;;;;;30.83;5.00;;;;;;;26.30;62.84;99743.25;7311228;19;129318;-37
2023/08/17 05:51:36;;;;;;;94.40;9.97;;;;;;;26.29;62.32;99745.09;7305974;19;129373;-39
2023/08/17 05:54:03;;;;;;;52.27;6.33;;;;;;;26.17;62.66;99722.69;7312816;19;130021;-33
2023/08/17 05:56:28;;;;;;;76.75;9.00;;;;;;;26.29;62.63;99745.09;7309970;19;129501;-37
2023/08/17 05:58:54;;;;;;;27.93;5.23;;;;;;;26.32;62.52;99751.81;7314803;19;130543;-35
2023/08/17 06:01:20;;;;;;;57.20;7.17;;;;;;;26.33;62.76;99756.94;7312005;19;129449;-35
2023/08/17 06:03:45;;;;;;;7.63;4.23;;;;;;;26.34;62.63;99752.50;7312833;19;129727;-36
2023/08/17 06:06:11;;;;;;;50.13;7.03;;;;;;;26.37;62.54;99754.78;7307490;19;129441;-39
2023/08/17 06:08:36;;;;;;;40.37;6.43;;;;;;;26.36;63.01;99743.41;7309944;19;129568;-34
2023/08/17 06:11:01;;;;;;;36.67;5.97;;;;;;;26.37;62.41;99754.78;7312577;19;129115;-40
2023/08/17 06:13:27;;;;;;;41.13;6.90;;;;;;;26.36;62.71;99756.59;7313170;19;129255;-35
2023/08/17 06:15:52;;;;;;;46.93;6.37;;;;;;;26.24;62.74;99739.50;7312110;19;129717;-39
2023/08/17 06:18:20;;;;;;;37.77;6.33;;;;;;;26.34;62.65;99755.13;7311262;19;129627;-36
2023/08/17 06:20:47;;;;;;;30.02;5.93;;;;;;;26.32;63.08;99757.94;7305496;19;129399;-35
2023/08/17 06:23:12;;;;;;;42.92;6.72;;;;;;;26.36;63.05;99767.13;7311884;19;129470;-35
2023/08/17 06:25:38;;;;;;;70.60;8.53;;;;;;;26.37;62.95;99781.16;7311369;19;129565;-37
2023/08/17 06:28:05;;;;;;;55.47;7.53;;;;;;;26.37;62.97;99771.44;7308020;19;130059;-34
2023/08/17 06:30:31;;;;;;;72.75;9.02;;;;;;;26.35;63.18;99768.13;7310636;19;130383;-37
2023/08/17 06:32:56;;;;;;;77.20;9.13;;;;;;;26.36;63.12;99764.50;7310074;19;129419;-33
2023/08/17 06:35:22;;;;;;;52.93;7.43;;;;;;;26.38;63.36;99778.34;7303908;19;129393;-37
2023/08/17 06:37:47;;;;;;;53.50;6.97;;;;;;;26.34;62.96;99774.41;7308431;19;129838;-34
2023/08/17 06:40:12;;;;;;;31.07;6.40;;;;;;;26.34;63.22;99787.59;7312461;19;129141;-34
2023/08/17 06:42:38;;;;;;;49.20;6.77;;;;;;;26.35;62.73;99776.03;7311043;19;129610;-37
2023/08/17 06:45:04;;;;;;;66.07;7.87;;;;;;;26.34;63.17;99774.41;7309675;19;129445;-35
2023/08/17 06:47:29;;;;;;;37.03;6.72;;;;;;;26.36;62.68;99779.50;7307999;19;130068;-36
2023/08/17 06:49:57;;;;;;;39.03;6.83;;;;;;;26.36;62.79;99769.78;7311744;19;129173;-40
2023/08/17 06:52:23;;;;;;;37.45;6.40;;;;;;;26.36;62.90;99766.34;7309781;19;129702;-35
2023/08/17 06:54:48;;;;;;;30.77;6.00;;;;;;;26.25;62.42;99751.66;7313995;19;130187;-38
2023/08/17 06:57:13;;;;;;;61.53;7.97;;;;;;;26.36;62.75;99759.22;7310597;19;130822;-32
2023/08/17 06:59:39;;;;;;;38.27;6.00;;;;;;;26.36;62.58;99756.59;7310727;19;129594;-31
2023/08/17 07:02:04;;;;;;;52.17;7.70;;;;;;;26.34;62.40;99766.50;7308680;19;128822;-27
2023/08/17 07:04:29;;;;;;;53.67;8.00;;;;;;;26.34;62.82;99769.13;7311117;19;129470;-35
2023/08/17 07:06:55;;;;;;;34.80;6.23;;;;;;;26.34;62.92;99774.41;7308393;19;129317;-32
2023/08/17 07:09:20;;;;;;;40.47;6.60;;;;;;;26.36;63.25;99772.41;7311473;19;128970;-32
2023/08/17 07:11:46;;;;;;;64.70;8.40;;;;;;;26.39;62.48;99769.47;7310006;19;129578;-32
2023/08/17 07:14:12;;;;;;;33.90;6.77;;;;;;;26.41;62.79;99761.38;7312258;19;129617;-31
2023/08/17 07:16:37;;;;;;;40.00;6.60;;;;;;;26.40;62.63;99760.56;7309407;19;130461;-30
2023/08/17 07:19:02;;;;;;;41.73;6.47;;;;;;;26.42;62.24;99758.59;7310972;19;129285;-34
2023/08/17 07:21:28;;;;;;;62.97;8.33;;;;;;;26.40;62.37;99759.72;7309253;19;129172;-39
2023/08/17 07:23:55;;;;;;;32.23;5.37;;;;;;;26.41;62.74;99762.19;7309415;19;129483;-32
2023/08/17 07:26:20;;;;;;;45.15;6.93;;;;;;;26.39;62.52;99764.19;7308705;19;130453;-35
2023/08/17 07:28:47;;;;;;;86.00;9.20;;;;;;;26.41;62.43;99762.19;7307965;19;129632;-36
2023/08/17 07:31:13;;;;;;;49.35;6.72;;;;;;;26.42;62.64;99758.59;7310817;19;130237;-39
2023/08/17 07:33:39;;;;;;;31.23;6.67;;;;;;;26.39;62.54;99763.34;7309893;19;130945;-35
2023/08/17 07:36:04;;;;;;;35.17;6.93;;;;;;;26.35;62.43;99757.59;7309484;19;131803;-32
2023/08/17 07:38:30;;;;;;;51.77;7.73;;;;;;;26.40;62.87;99763.19;7307930;19;129464;-34
2023/08/17 07:40:55;;;;;;;40.50;6.37;;;;;;;26.40;62.70;99760.56;7309741;19;129557;-35
2023/08/17 07:43:20;;;;;;;40.27;6.63;;;;;;;26.31;62.53;99745.72;7309603;19;131042;-33
2023/08/17 07:45:53;;;;;;;99.60;11.20;;;;;;;26.44;63.55;99755.78;7303185;19;129520;-34
2023/08/17 07:48:18;;;;;;;57.17;7.38;;;;;;;26.32;62.78;99757.09;7299031;19;130516;-42
2023/08/17 07:50:48;;;;;;;95.40;9.87;;;;;;;26.31;63.63;99766.81;7301558;19;129868;-41
2023/08/17 08:00:24;;;;;;;72.97;8.40;;;;;;;26.25;64.33;99737.66;7306796;19;129795;-34
2023/08/17 08:09:32;;;;;;;82.88;9.25;;;;;;;26.30;62.71;99719.53;7302014;19;130239;-37
2023/08/17 08:11:59;;;;;;;147.60;11.67;;;;;;;26.30;63.52;99709.81;7298998;19;130269;-40
2023/08/17 08:27:13;;;;;;;132.43;10.68;;;;;;;26.33;62.50;99706.03;7303627;19;130858;-37
2023/08/17 08:29:38;;;;;;;85.07;8.73;;;;;;;26.29;62.36;99712.63;7305958;19;130863;-37
2023/08/17 08:32:04;;;;;;;92.60;9.80;;;;;;;26.27;62.57;99702.25;7302992;19;131476;-33
2023/08/17 08:34:29;;;;;;;153.63;11.70;;;;;;;26.27;62.72;99699.63;7303203;19;131481;-42
2023/08/17 08:36:54;;;;;;;113.47;10.50;;;;;;;26.17;62.57;99679.69;7309994;19;129014;-36
2023/08/17 08:39:20;;;;;;;51.70;7.13;;;;;;;26.30;62.48;99686.09;7312915;19;129571;-34
2023/08/17 08:41:45;;;;;;;71.53;7.80;;;;;;;26.29;63.01;99689.72;7281077;19;130119;-33
2023/08/17 08:44:11;;;;;;;176.83;14.27;;;;;;;26.32;62.94;99685.91;7298685;19;129940;-40
2023/08/17 08:46:41;;;;;;;389.37;27.97;;;;;;;26.30;62.77;99687.91;7257593;19;129758;-40
2023/08/17 08:49:10;;;;;;;63.00;7.22;;;;;;;26.30;62.44;99691.38;7289069;19;129695;-38
2023/08/17 08:51:40;;;;;;;70.15;7.70;;;;;;;26.26;63.28;99690.03;7308655;19;129709;-41
2023/08/17 08:54:11;;;;;;;398.60;28.95;;;;;;;26.27;63.14;99696.16;7287801;19;129462;-41
2023/08/17 08:56:40;;;;;;;110.82;10.30;;;;;;;26.19;62.79;99678.53;7296341;19;129331;-34
2023/08/17 08:59:07;;;;;;;73.95;8.15;;;;;;;26.26;62.77;99692.69;7310004;19;130318;-31
2023/08/17 09:01:33;;;;;;;64.53;7.80;;;;;;;26.24;62.86;99697.31;7308305;19;129558;-27
2023/08/17 09:04:02;;;;;;;52.60;6.97;;;;;;;26.27;62.98;99686.44;7310070;19;129696;-34
2023/08/17 09:06:30;;;;;;;89.78;8.27;;;;;;;26.33;62.88;99693.66;7284254;19;130455;-39
2023/08/17 09:08:57;;;;;;;61.55;7.35;;;;;;;26.35;62.67;99693.50;7309730;19;130586;-37
2023/08/17 09:11:23;;;;;;;51.97;6.63;;;;;;;26.34;62.37;99692.69;7308711;19;129679;-43
2023/08/17 09:13:48;;;;;;;68.00;7.47;;;;;;;26.38;62.37;99686.06;7309043;19;129158;-32
2023/08/17 09:16:14;;;;;;;58.90;6.80;;;;;;;26.37;62.64;99692.34;7268028;19;129889;-39
2023/08/17 09:18:40;;;;;;;63.80;7.30;;;;;;;26.30;62.68;99672.06;7302978;19;129067;-37
2023/08/17 09:21:05;;;;;;;51.67;6.73;;;;;;;26.38;62.38;99685.25;7305133;19;130137;-33
2023/08/17 09:23:31;;;;;;;256.60;17.27;;;;;;;26.39;62.88;99677.19;7290422;19;129252;-35
2023/08/17 09:25:58;;;;;;;97.50;9.47;;;;;;;26.40;63.19;99684.09;7299202;19;129764;-39
2023/08/17 09:28:24;;;;;;;57.20;7.13;;;;;;;26.45;62.70;99684.41;7301439;19;130107;-45
2023/08/17 09:31:03;;;;;;;62.97;7.13;;;;;;;26.46;62.78;99677.34;7302690;19;130525;-36
2023/08/17 09:33:31;;;;;;;73.63;7.80;;;;;;;26.46;62.39;99678.13;7304680;19;129653;-40
2023/08/17 09:35:57;;;;;;;77.50;8.15;;;;;;;26.43;62.29;99673.22;7304343;19;129909;-38
2023/08/17 09:38:23;;;;;;;72.32;7.93;;;;;;;26.40;62.79;99665.63;7305973;19;130222;-41
2023/08/17 09:40:48;;;;;;;58.90;6.83;;;;;;;26.36;62.85;99669.59;7304952;19;129741;-38
2023/08/17 09:43:15;;;;;;;85.17;8.20;;;;;;;26.39;63.48;99664.00;7303456;19;129988;-40
2023/08/17 09:45:44;;;;;;;60.25;7.15;;;;;;;26.40;63.11;99670.91;7303697;19;129615;-37
2023/08/17 09:48:09;;;;;;;76.28;7.70;;;;;;;26.32;62.62;99667.47;7305052;19;129491;-34
2023/08/17 09:50:35;;;;;;;71.53;7.80;;;;;;;26.33;62.63;99667.28;7306969;19;129389;-36
2023/08/17 09:53:03;;;;;;;64.97;7.37;;;;;;;26.34;62.89;99676.03;7305987;19;131083;-32
2023/08/17 09:55:32;;;;;;;69.05;8.15;;;;;;;26.34;63.42;99666.31;7309609;19;130595;-37
2023/08/17 09:57:57;;;;;;;82.80;8.13;;;;;;;26.29;61.89;99666.00;7301427;19;130641;-32
2023/08/17 10:00:24;;;;;;;59.40;7.03;;;;;;;26.29;62.61;99666.00;7307909;19;130801;-38
2023/08/17 10:02:51;;;;;;;69.78;7.88;;;;;;;26.33;62.70;99666.50;7303052;19;129532;-36
2023/08/17 10:05:20;;;;;;;53.30;7.15;;;;;;;26.29;63.37;99663.38;7305396;19;129324;-32
2023/08/17 10:07:51;;;;;;;67.38;7.70;;;;;;;26.30;63.93;99669.44;7301922;19;132323;-35
2023/08/17 10:10:24;;;;;;;64.95;7.72;;;;;;;26.21;63.89;99650.22;7305429;19;130491;-38
2023/08/17 10:13:09;;;;;;;62.25;7.88;;;;;;;26.31;64.19;99661.38;7306057;19;129197;-34
2023/08/17 10:15:49;;;;;;;76.55;8.07;;;;;;;26.31;63.26;99666.63;7305063;19;129591;-35
2023/08/17 10:18:14;;;;;;;58.65;7.25;;;;;;;26.29;62.63;99663.38;7306367;19;129386;-35
2023/08/17 10:20:45;;;;;;;63.80;7.13;;;;;;;26.30;63.75;99659.72;7306848;19;129324;-35
2023/08/17 10:23:16;;;;;;;66.78;7.65;;;;;;;26.32;63.45;99660.41;7307923;19;129325;-37
2023/08/17 10:25:43;;;;;;;98.55;10.60;;;;;;;26.32;62.58;99657.75;7307141;19;129107;-36
2023/08/17 10:28:10;;;;;;;53.75;7.00;;;;;;;26.29;62.66;99654.63;7305003;19;130947;-37
2023/08/17 10:30:36;;;;;;;68.50;7.90;;;;;;;26.34;63.56;99660.22;7307081;19;130392;-31
2023/08/17 10:33:04;;;;;;;72.57;8.05;;;;;;;26.38;63.09;99656.25;7306708;19;129813;-34
2023/08/17 10:35:31;;;;;;;62.10;8.18;;;;;;;26.32;63.05;99636.66;7307824;19;129677;-40
2023/08/17 10:37:58;;;;;;;52.20;7.15;;;;;;;26.47;63.20;99650.78;7305222;19;129652;-34
2023/08/17 10:40:35;;;;;;;60.40;7.63;;;;;;;26.46;63.14;99640.41;7306977;19;129598;-37
2023/08/17 10:43:01;;;;;;;54.67;6.78;;;;;;;26.43;62.24;99643.38;7305364;19;129848;-34
2023/08/17 10:45:31;;;;;;;85.13;8.63;;;;;;;26.41;63.34;99638.28;7305848;19;129458;-37
2023/08/17 10:48:05;;;;;;;288.40;19.63;;;;;;;26.42;63.88;99642.56;7286211;19;130018;-36
2023/08/17 10:50:30;;;;;;;75.82;8.55;;;;;;;26.33;62.31;99637.50;7271159;19;130447;-39
2023/08/17 10:52:55;;;;;;;160.83;13.17;;;;;;;26.29;62.37;99629.09;7303460;19;129711;-39
2023/08/17 10:55:37;;;;;;;79.33;8.47;;;;;;;26.28;64.04;99626.63;7280350;19;133207;-30
2023/08/17 10:58:04;;;;;;;82.35;9.00;;;;;;;26.32;62.69;99630.56;7302468;19;130184;-32
2023/08/17 11:00:39;;;;;;;218.32;16.58;;;;;;;26.29;63.45;99626.47;7292670;19;129718;-41
2023/08/17 11:03:07;;;;;;;56.03;7.82;;;;;;;26.25;62.92;99627.78;7300356;19;129717;-33
2023/08/17 11:05:46;;;;;;;60.80;7.95;;;;;;;26.31;64.28;99615.75;7306860;19;129106;-36
2023/08/17 11:08:31;;;;;;;48.15;7.53;;;;;;;26.42;64.25;99610.09;7304868;19;130387;-34
2023/08/17 11:10:58;;;;;;;83.10;9.50;;;;;;;26.33;63.09;99597.97;7304745;19;129971;-38
2023/08/17 11:13:26;;;;;;;78.15;9.10;;;;;;;26.45;63.12;99615.84;7301129;19;129923;-35
2023/08/17 11:15:52;;;;;;;74.35;9.13;;;;;;;26.45;62.42;99615.84;7305015;19;129624;-35
2023/08/17 11:18:17;;;;;;;78.80;9.47;;;;;;;26.38;62.77;99608.78;7299562;19;131399;-31
2023/08/17 11:20:43;;;;;;;58.93;7.93;;;;;;;26.35;63.07;99614.41;7304371;19;129586;-37
2023/08/17 11:23:10;;;;;;;111.90;11.37;;;;;;;26.34;62.74;99618.03;7304548;19;129613;-32
2023/08/17 11:25:37;;;;;;;73.75;9.35;;;;;;;26.38;63.25;99612.25;7301301;19;129830;-39
2023/08/17 11:28:03;;;;;;;67.25;9.80;;;;;;;26.37;62.82;99615.91;7299444;19;129845;-31
2023/08/17 11:30:29;;;;;;;66.05;8.77;;;;;;;26.42;63.09;99597.75;7302644;19;130268;-33
2023/08/17 11:32:57;;;;;;;75.83;9.67;;;;;;;26.43;63.35;99607.28;7299943;19;129312;-35
2023/08/17 11:35:23;;;;;;;71.65;9.25;;;;;;;26.40;63.02;99607.63;7299440;19;129828;-39
2023/08/17 11:37:49;;;;;;;43.37;8.13;;;;;;;26.44;62.81;99608.94;7301524;19;129404;-32
2023/08/17 11:40:15;;;;;;;56.80;8.60;;;;;;;26.47;63.22;99603.34;7304899;19;129666;-36